createdAt,value
2022-12-13T00:00:19.319Z,93104.28
2022-12-13T00:01:17.439Z,93049.88
2022-12-13T00:02:14.097Z,93104.34
2022-12-13T00:03:10.800Z,93102.06
2022-12-13T00:04:08.530Z,93092.75
2022-12-13T00:05:05.591Z,93104.97
2022-12-13T00:06:05.476Z,93108.72
2022-12-13T00:07:02.254Z,93081.59
2022-12-13T00:08:00.062Z,93112.50
2022-12-13T00:08:57.329Z,93118.22
2022-12-13T00:09:53.955Z,93089.44
2022-12-13T00:11:00.255Z,93077.22
2022-12-13T00:11:56.985Z,93117.38
2022-12-13T00:12:53.620Z,93114.00
2022-12-13T00:13:50.277Z,93102.63
2022-12-13T00:14:46.862Z,93112.78
2022-12-13T00:15:43.502Z,93111.44
2022-12-13T00:16:40.736Z,93115.22
2022-12-13T00:17:37.709Z,93117.38
2022-12-13T00:18:34.983Z,93112.94
2022-12-13T00:19:31.565Z,93115.53
2022-12-13T00:20:28.171Z,93115.63
2022-12-13T00:21:30.288Z,93124.66
2022-12-13T00:22:26.940Z,93118.91
2022-12-13T00:23:24.344Z,93118.44
2022-12-13T00:24:21.058Z,93090.13
2022-12-13T00:25:19.902Z,93110.97
2022-12-13T00:26:19.578Z,93114.56
2022-12-13T00:27:16.127Z,93114.84
2022-12-13T00:28:12.811Z,93111.16
2022-12-13T00:29:11.261Z,93125.03
2022-12-13T00:30:08.413Z,93103.41
2022-12-13T00:31:43.156Z,93126.59
2022-12-13T00:32:21.799Z,93120.53
2022-12-13T00:33:18.497Z,93115.72
2022-12-13T00:34:15.154Z,93118.41
2022-12-13T00:35:11.836Z,93108.72
2022-12-13T00:36:08.900Z,93119.50
2022-12-13T00:37:05.490Z,93127.88
2022-12-13T00:38:02.123Z,93126.13
2022-12-13T00:39:01.744Z,93120.41
2022-12-13T00:39:58.392Z,93125.16
2022-12-13T00:40:54.955Z,93125.84
2022-12-13T00:41:51.765Z,93126.69
2022-12-13T00:42:49.146Z,93133.88
2022-12-13T00:43:46.329Z,93131.25
2022-12-13T00:44:42.948Z,93130.41
2022-12-13T00:45:39.985Z,93080.72
2022-12-13T00:46:36.639Z,93135.44
2022-12-13T00:47:33.341Z,93079.66
2022-12-13T00:48:30.200Z,93128.06
2022-12-13T00:49:26.798Z,93135.63
2022-12-13T00:50:23.424Z,93132.03
2022-12-13T00:51:21.027Z,93138.72
2022-12-13T00:52:17.595Z,93124.66
2022-12-13T00:53:14.183Z,93127.69
2022-12-13T00:54:11.323Z,93130.50
2022-12-13T00:55:08.391Z,93134.06
2022-12-13T00:56:09.964Z,93091.19
2022-12-13T00:57:06.576Z,93128.50
2022-12-13T00:58:03.229Z,93115.06
2022-12-13T00:59:00.326Z,93133.00
2022-12-13T00:59:57.018Z,93133.88
2022-12-13T01:00:53.591Z,93135.34
2022-12-13T01:01:50.257Z,93135.72
2022-12-13T01:02:47.162Z,93128.34
2022-12-13T01:03:44.045Z,93135.44
2022-12-13T01:04:40.648Z,93132.16
2022-12-13T01:06:13.289Z,93126.31
2022-12-13T01:06:55.160Z,93128.72
2022-12-13T01:07:51.904Z,93118.94
2022-12-13T01:08:49.420Z,93089.47
2022-12-13T01:09:46.020Z,93120.88
2022-12-13T01:10:47.098Z,93120.59
2022-12-13T01:11:44.832Z,93130.75
2022-12-13T01:12:41.480Z,93131.56
2022-12-13T01:13:39.243Z,93126.72
2022-12-13T01:14:37.225Z,93128.56
2022-12-13T01:15:33.853Z,93128.75
2022-12-13T01:16:30.590Z,93127.88
2022-12-13T01:17:27.571Z,93078.00
2022-12-13T01:18:24.314Z,93119.94
2022-12-13T01:19:22.415Z,93129.53
2022-12-13T01:20:19.054Z,93135.53
2022-12-13T01:21:18.286Z,93127.88
2022-12-13T01:22:15.019Z,93125.53
2022-12-13T01:23:11.939Z,93129.59
2022-12-13T01:24:08.659Z,93134.66
2022-12-13T01:25:05.529Z,93137.09
2022-12-13T01:26:04.533Z,93136.50
2022-12-13T01:27:01.216Z,93127.41
2022-12-13T01:27:57.775Z,93129.59
2022-12-13T01:28:54.372Z,93101.38
2022-12-13T01:29:51.021Z,93124.28
2022-12-13T01:30:56.698Z,93130.09
2022-12-13T01:31:54.294Z,93128.53
2022-12-13T01:32:51.027Z,93130.69
2022-12-13T01:33:48.601Z,93130.38
2022-12-13T01:34:45.154Z,93127.88
2022-12-13T01:35:41.837Z,93127.97
2022-12-13T01:36:43.384Z,93136.19
2022-12-13T01:37:39.976Z,93119.91
2022-12-13T01:38:37.869Z,93130.69
2022-12-13T01:39:38.228Z,93122.84
2022-12-13T01:40:38.786Z,93136.91
2022-12-13T01:41:36.031Z,93138.75
2022-12-13T01:42:32.682Z,93115.53
2022-12-13T01:43:49.272Z,93141.38
2022-12-13T01:45:04.067Z,93134.66
2022-12-13T01:46:00.768Z,93139.22
2022-12-13T01:46:57.487Z,93143.78
2022-12-13T01:48:02.476Z,93143.59
2022-12-13T01:49:04.842Z,93094.69
2022-12-13T01:50:03.091Z,93142.13
2022-12-13T01:51:03.877Z,93145.63
2022-12-13T01:52:05.287Z,93139.91
2022-12-13T01:53:05.364Z,93137.19
2022-12-13T01:54:05.140Z,93141.53
2022-12-13T01:55:05.118Z,93148.44
2022-12-13T01:56:06.965Z,93144.75
2022-12-13T01:57:06.924Z,93149.00
2022-12-13T01:58:05.899Z,93156.28
2022-12-13T01:59:02.984Z,93098.34
2022-12-13T01:59:59.955Z,93127.56
2022-12-13T02:00:59.184Z,93096.59
2022-12-13T02:02:00.939Z,93150.69
2022-12-13T02:02:59.927Z,93144.16
2022-12-13T02:03:56.577Z,93145.91
2022-12-13T02:04:58.479Z,93135.13
2022-12-13T02:06:19.678Z,93153.56
2022-12-13T02:07:23.185Z,93097.19
2022-12-13T02:08:21.349Z,93142.50
2022-12-13T02:09:18.820Z,93147.47
2022-12-13T02:10:15.540Z,93139.09
2022-12-13T02:11:13.020Z,93140.88
2022-12-13T02:12:11.379Z,93142.63
2022-12-13T02:13:08.003Z,93086.69
2022-12-13T02:14:05.636Z,93143.34
2022-12-13T02:15:07.985Z,93139.25
2022-12-13T02:16:28.226Z,93145.41
2022-12-13T02:17:44.722Z,93142.03
2022-12-13T02:19:10.328Z,93146.50
2022-12-13T02:20:25.643Z,93119.75
2022-12-13T02:21:48.757Z,93141.56
2022-12-13T02:23:11.689Z,93139.72
2022-12-13T02:24:32.699Z,93143.03
2022-12-13T02:25:35.082Z,93146.72
2022-12-13T02:26:34.316Z,93145.94
2022-12-13T02:28:30.851Z,93156.38
2022-12-13T02:30:00.904Z,93147.22
2022-12-13T02:31:07.962Z,93150.38
2022-12-13T02:32:28.869Z,93147.56
2022-12-13T02:33:50.439Z,93149.41
2022-12-13T02:34:50.088Z,93144.88
2022-12-13T02:36:12.723Z,93146.00
2022-12-13T02:37:25.590Z,93148.69
2022-12-13T02:38:55.498Z,93122.41
2022-12-13T02:40:05.370Z,93149.03
2022-12-13T02:41:24.256Z,93153.50
2022-12-13T02:42:49.508Z,93158.06
2022-12-13T02:44:22.363Z,93154.13
2022-12-13T02:45:36.817Z,93125.16
2022-12-13T02:46:39.785Z,93081.34
2022-12-13T02:47:41.584Z,93155.63
2022-12-13T02:48:40.857Z,93132.97
2022-12-13T02:49:42.429Z,93132.56
2022-12-13T02:50:40.497Z,93157.88
2022-12-13T02:51:39.307Z,93160.28
2022-12-13T02:52:36.772Z,93155.59
2022-12-13T02:53:34.859Z,93160.09
2022-12-13T02:54:31.561Z,93154.97
2022-12-13T02:55:28.959Z,93154.06
2022-12-13T02:56:25.531Z,93152.72
2022-12-13T02:57:30.008Z,93136.03
2022-12-13T02:58:31.116Z,93126.28
2022-12-13T02:59:35.805Z,93102.97
2022-12-13T03:00:59.228Z,93164.50
2022-12-13T03:02:14.457Z,93166.28
2022-12-13T03:03:30.473Z,93166.94
2022-12-13T03:04:36.419Z,93164.88
2022-12-13T03:05:51.460Z,93168.94
2022-12-13T03:07:00.444Z,93153.38
2022-12-13T03:08:38.830Z,93117.72
2022-12-13T03:09:50.472Z,93169.22
2022-12-13T03:10:55.081Z,93172.28
2022-12-13T03:12:32.487Z,93173.78
2022-12-13T03:13:42.978Z,93129.72
2022-12-13T03:14:46.827Z,93170.38
2022-12-13T03:16:14.656Z,93167.47
2022-12-13T03:17:21.650Z,93166.28
2022-12-13T03:18:22.185Z,93167.84
2022-12-13T03:19:19.491Z,93158.59
2022-12-13T03:20:24.548Z,93156.03
2022-12-13T03:21:21.219Z,93136.50
2022-12-13T03:22:17.893Z,93127.16
2022-12-13T03:23:16.315Z,93159.34
2022-12-13T03:24:13.659Z,93129.81
2022-12-13T03:25:10.246Z,93122.25
2022-12-13T03:26:12.910Z,93173.34
2022-12-13T03:27:09.485Z,93133.72
2022-12-13T03:28:06.087Z,93171.88
2022-12-13T03:29:02.789Z,93170.19
2022-12-13T03:30:00.218Z,93148.13
2022-12-13T03:30:56.929Z,93180.81
2022-12-13T03:31:54.353Z,93178.75
2022-12-13T03:32:50.943Z,93177.69
2022-12-13T03:33:48.232Z,93135.13
2022-12-13T03:34:47.588Z,93176.50
2022-12-13T03:35:46.594Z,93181.63
2022-12-13T03:36:43.337Z,93174.19
2022-12-13T03:37:39.953Z,93169.66
2022-12-13T03:38:38.191Z,93132.03
2022-12-13T03:39:35.372Z,93181.75
2022-12-13T03:40:34.280Z,93176.69
2022-12-13T03:41:34.053Z,93167.66
2022-12-13T03:42:30.819Z,93172.75
2022-12-13T03:43:28.770Z,93171.78
2022-12-13T03:44:25.462Z,93173.22
2022-12-13T03:45:28.301Z,93179.03
2022-12-13T03:46:25.002Z,93177.72
2022-12-13T03:47:21.697Z,93178.03
2022-12-13T03:48:22.203Z,93140.41
2022-12-13T03:49:19.887Z,93183.81
2022-12-13T03:50:25.798Z,93191.03
2022-12-13T03:51:24.017Z,93186.84
2022-12-13T03:52:20.680Z,93190.75
2022-12-13T03:53:22.869Z,93149.31
2022-12-13T03:54:29.547Z,93177.72
2022-12-13T03:55:26.846Z,93177.34
2022-12-13T03:56:23.553Z,93199.59
2022-12-13T03:57:20.187Z,93185.25
2022-12-13T03:58:16.871Z,93188.41
2022-12-13T03:59:13.486Z,93194.66
2022-12-13T04:00:10.684Z,93196.22
2022-12-13T04:01:10.216Z,93206.22
2022-12-13T04:02:06.908Z,93204.28
2022-12-13T04:03:03.690Z,93212.66
2022-12-13T04:04:00.430Z,93214.94
2022-12-13T04:04:57.069Z,93209.47
2022-12-13T04:05:57.379Z,93212.69
2022-12-13T04:06:53.933Z,93211.84
2022-12-13T04:07:50.531Z,93209.38
2022-12-13T04:08:47.239Z,93216.41
2022-12-13T04:09:47.666Z,93211.97
2022-12-13T04:10:44.246Z,93208.56
2022-12-13T04:11:59.751Z,93207.47
2022-12-13T04:13:15.055Z,93209.88
2022-12-13T04:14:12.331Z,93172.72
2022-12-13T04:15:19.083Z,93211.91
2022-12-13T04:16:15.803Z,93210.75
2022-12-13T04:17:12.371Z,93184.19
2022-12-13T04:18:09.034Z,93126.69
2022-12-13T04:19:05.704Z,93218.16
2022-12-13T04:20:02.339Z,93225.31
2022-12-13T04:20:58.956Z,93218.50
2022-12-13T04:21:55.549Z,93223.19
2022-12-13T04:22:52.154Z,93222.22
2022-12-13T04:23:48.805Z,93239.94
2022-12-13T04:24:45.391Z,93240.72
2022-12-13T04:25:42.941Z,93226.50
2022-12-13T04:26:40.758Z,93230.75
2022-12-13T04:27:38.097Z,93230.63
2022-12-13T04:28:34.727Z,93233.88
2022-12-13T04:29:34.907Z,93238.31
2022-12-13T04:30:32.129Z,93243.31
2022-12-13T04:31:28.796Z,93232.50
2022-12-13T04:32:26.871Z,93237.53
2022-12-13T04:33:24.852Z,93231.84
2022-12-13T04:34:21.517Z,93226.69
2022-12-13T04:35:18.412Z,93208.56
2022-12-13T04:36:32.165Z,93238.75
2022-12-13T04:37:30.362Z,93239.28
2022-12-13T04:38:27.583Z,93239.84
2022-12-13T04:39:24.150Z,93198.78
2022-12-13T04:40:21.921Z,93245.31
2022-12-13T04:41:19.480Z,93206.53
2022-12-13T04:42:16.443Z,93244.44
2022-12-13T04:43:13.127Z,93235.81
2022-12-13T04:44:27.892Z,93208.81
2022-12-13T04:45:26.067Z,93181.44
2022-12-13T04:46:22.820Z,93237.50
2022-12-13T04:47:19.441Z,93243.19
2022-12-13T04:48:31.314Z,93248.81
2022-12-13T04:49:30.152Z,93251.75
2022-12-13T04:50:26.938Z,93243.59
2022-12-13T04:51:23.846Z,93236.22
2022-12-13T04:52:22.329Z,93250.63
2022-12-13T04:53:19.435Z,93258.16
2022-12-13T04:54:24.600Z,93253.69
2022-12-13T04:55:21.295Z,93252.56
2022-12-13T04:56:18.161Z,93259.25
2022-12-13T04:57:14.892Z,93256.97
2022-12-13T04:58:11.777Z,93257.75
2022-12-13T04:59:09.125Z,93216.59
2022-12-13T05:00:07.102Z,93258.69
2022-12-13T05:01:08.181Z,93246.56
2022-12-13T05:02:06.311Z,93247.84
2022-12-13T05:03:03.475Z,93268.91
2022-12-13T05:04:03.329Z,93266.97
2022-12-13T05:05:00.437Z,93274.75
2022-12-13T05:05:57.025Z,93270.31
2022-12-13T05:06:53.608Z,93268.06
2022-12-13T05:07:50.254Z,93250.66
2022-12-13T05:08:46.888Z,93269.41
2022-12-13T05:09:43.475Z,93274.13
2022-12-13T05:10:40.322Z,93277.28
2022-12-13T05:11:36.926Z,93274.66
2022-12-13T05:12:42.178Z,93281.69
2022-12-13T05:13:39.330Z,93273.84
2022-12-13T05:14:35.915Z,93251.53
2022-12-13T05:15:33.655Z,93274.41
2022-12-13T05:16:30.361Z,93273.63
2022-12-13T05:17:27.013Z,93230.22
2022-12-13T05:18:23.790Z,93275.44
2022-12-13T05:19:20.447Z,93264.47
2022-12-13T05:20:17.073Z,93274.34
2022-12-13T05:21:13.684Z,93269.66
2022-12-13T05:22:19.845Z,93271.06
2022-12-13T05:23:23.114Z,93257.16
2022-12-13T05:24:19.800Z,93269.72
2022-12-13T05:25:16.707Z,93261.88
2022-12-13T05:26:13.455Z,93255.44
2022-12-13T05:27:24.881Z,93257.78
2022-12-13T05:28:27.811Z,93263.75
2022-12-13T05:29:25.449Z,93248.91
2022-12-13T05:30:22.013Z,93264.19
2022-12-13T05:31:23.288Z,93257.66
2022-12-13T05:32:20.719Z,93267.34
2022-12-13T05:33:17.360Z,93245.53
2022-12-13T05:34:14.080Z,93269.75
2022-12-13T05:35:10.901Z,93240.69
2022-12-13T05:36:07.920Z,93239.38
2022-12-13T05:37:04.582Z,93280.47
2022-12-13T05:38:01.412Z,93276.53
2022-12-13T05:38:58.000Z,93280.22
2022-12-13T05:39:54.637Z,93286.47
2022-12-13T05:40:51.229Z,93281.00
2022-12-13T05:41:48.124Z,93264.66
2022-12-13T05:42:44.705Z,93297.13
2022-12-13T05:43:43.021Z,93306.00
2022-12-13T05:44:40.225Z,93296.41
2022-12-13T05:45:37.204Z,93302.63
2022-12-13T05:46:39.885Z,93246.75
2022-12-13T05:47:38.169Z,93308.88
2022-12-13T05:48:34.802Z,93309.63
2022-12-13T05:49:32.255Z,93305.22
2022-12-13T05:50:29.149Z,93304.44
2022-12-13T05:51:25.878Z,93304.19
2022-12-13T05:52:31.335Z,93219.44
2022-12-13T05:53:30.645Z,93304.72
2022-12-13T05:54:27.986Z,93267.00
2022-12-13T05:55:24.624Z,93297.44
2022-12-13T05:56:22.614Z,93299.53
2022-12-13T05:57:19.972Z,93294.81
2022-12-13T05:58:16.768Z,93293.53
2022-12-13T05:59:20.021Z,93295.34
2022-12-13T06:00:30.006Z,93271.19
2022-12-13T06:01:27.392Z,93297.72
2022-12-13T06:02:24.368Z,93294.59
2022-12-13T06:03:21.373Z,93297.97
2022-12-13T06:04:22.540Z,93303.69
2022-12-13T06:05:20.041Z,93303.97
2022-12-13T06:06:18.243Z,93306.53
2022-12-13T06:07:14.902Z,93302.38
2022-12-13T06:08:24.268Z,93297.94
2022-12-13T06:09:22.113Z,93306.28
2022-12-13T06:10:21.798Z,93291.19
2022-12-13T06:11:32.157Z,93318.53
2022-12-13T06:12:31.693Z,93318.53
2022-12-13T06:13:32.014Z,93311.47
2022-12-13T06:14:29.285Z,93306.84
2022-12-13T06:15:26.230Z,93275.09
2022-12-13T06:16:31.612Z,93304.72
2022-12-13T06:17:36.227Z,93305.25
2022-12-13T06:18:35.480Z,93305.47
2022-12-13T06:19:32.254Z,93305.00
2022-12-13T06:20:28.892Z,93311.13
2022-12-13T06:21:25.607Z,93322.25
2022-12-13T06:22:22.168Z,93330.38
2022-12-13T06:23:18.809Z,93323.31
2022-12-13T06:24:17.119Z,93316.06
2022-12-13T06:25:30.844Z,93319.44
2022-12-13T06:26:28.514Z,93321.00
2022-12-13T06:27:25.151Z,93317.84
2022-12-13T06:28:21.787Z,93318.81
2022-12-13T06:29:24.226Z,93307.78
2022-12-13T06:30:22.014Z,93310.94
2022-12-13T06:31:18.671Z,93309.41
2022-12-13T06:32:15.427Z,93309.19
2022-12-13T06:33:13.355Z,93308.06
2022-12-13T06:34:14.581Z,93297.72
2022-12-13T06:35:28.989Z,93313.28
2022-12-13T06:36:26.694Z,93225.72
2022-12-13T06:37:23.243Z,93311.75
2022-12-13T06:38:31.611Z,93310.69
2022-12-13T06:39:32.701Z,93313.28
2022-12-13T06:40:30.765Z,93314.84
2022-12-13T06:41:31.994Z,93320.84
2022-12-13T06:42:28.782Z,93320.88
2022-12-13T06:43:25.375Z,93325.75
2022-12-13T06:44:22.186Z,93316.41
2022-12-13T06:45:19.009Z,93328.72
2022-12-13T06:46:16.028Z,93338.13
2022-12-13T06:47:12.966Z,93324.06
2022-12-13T06:48:28.970Z,93335.97
2022-12-13T06:49:25.666Z,93294.84
2022-12-13T06:50:29.136Z,93342.38
2022-12-13T06:51:33.242Z,93293.06
2022-12-13T06:52:30.105Z,93339.47
2022-12-13T06:53:26.763Z,93341.56
2022-12-13T06:54:23.363Z,93338.63
2022-12-13T06:55:23.591Z,93339.06
2022-12-13T06:56:20.831Z,93349.22
2022-12-13T06:57:17.565Z,93344.50
2022-12-13T06:58:14.170Z,93301.06
2022-12-13T06:59:10.917Z,93338.19
2022-12-13T07:00:08.409Z,93239.78
2022-12-13T07:01:14.577Z,93303.81
2022-12-13T07:02:15.533Z,93338.81
2022-12-13T07:03:22.541Z,93344.66
2022-12-13T07:04:29.741Z,93338.97
2022-12-13T07:05:27.658Z,93342.09
2022-12-13T07:06:25.581Z,93348.75
2022-12-13T07:07:22.878Z,93337.91
2022-12-13T07:08:22.380Z,93341.06
2022-12-13T07:09:19.563Z,93341.75
2022-12-13T07:10:22.149Z,93331.28
2022-12-13T07:11:25.196Z,93309.06
2022-12-13T07:12:22.241Z,93341.53
2022-12-13T07:13:18.807Z,93334.22
2022-12-13T07:14:15.847Z,93341.94
2022-12-13T07:15:12.442Z,93322.03
2022-12-13T07:16:10.384Z,93333.63
2022-12-13T07:17:07.026Z,93335.34
2022-12-13T07:18:04.200Z,93333.38
2022-12-13T07:19:02.128Z,93334.28
2022-12-13T07:19:58.918Z,93339.13
2022-12-13T07:20:57.816Z,93340.91
2022-12-13T07:21:54.442Z,93309.16
2022-12-13T07:22:59.243Z,93348.53
2022-12-13T07:23:56.179Z,93348.25
2022-12-13T07:24:52.932Z,93347.63
2022-12-13T07:25:55.534Z,93348.13
2022-12-13T07:26:52.243Z,93349.38
2022-12-13T07:27:48.887Z,93356.63
2022-12-13T07:28:50.093Z,93356.63
2022-12-13T07:29:49.612Z,93353.22
2022-12-13T07:30:46.913Z,93329.16
2022-12-13T07:31:43.626Z,93357.25
2022-12-13T07:32:41.709Z,93360.56
2022-12-13T07:33:38.765Z,93352.28
2022-12-13T07:34:35.686Z,93346.75
2022-12-13T07:35:36.976Z,93360.34
2022-12-13T07:36:34.342Z,93308.41
2022-12-13T07:37:31.282Z,93360.81
2022-12-13T07:38:28.479Z,93363.53
2022-12-13T07:39:26.341Z,93363.13
2022-12-13T07:40:22.973Z,93333.69
2022-12-13T07:41:23.732Z,93367.41
2022-12-13T07:42:20.839Z,93365.88
2022-12-13T07:43:17.847Z,93358.56
2022-12-13T07:44:14.631Z,93355.44
2022-12-13T07:45:11.341Z,93359.66
2022-12-13T07:46:08.381Z,93353.56
2022-12-13T07:47:05.090Z,93354.47
2022-12-13T07:48:05.855Z,93348.19
2022-12-13T07:49:03.431Z,93353.16
2022-12-13T07:50:00.108Z,93315.97
2022-12-13T07:51:03.997Z,93348.94
2022-12-13T07:52:00.661Z,93353.09
2022-12-13T07:52:57.342Z,93326.88
2022-12-13T07:53:54.015Z,93350.03
2022-12-13T07:54:50.743Z,93339.63
2022-12-13T07:55:47.500Z,93316.88
2022-12-13T07:56:44.411Z,93348.94
2022-12-13T07:57:42.614Z,93331.00
2022-12-13T07:58:39.496Z,93332.53
2022-12-13T07:59:36.122Z,93353.03
2022-12-13T08:00:33.440Z,93358.06
2022-12-13T08:01:34.639Z,93356.16
2022-12-13T08:02:31.704Z,93344.75
2022-12-13T08:03:28.807Z,93357.84
2022-12-13T08:04:25.627Z,93360.88
2022-12-13T08:05:26.681Z,93360.72
2022-12-13T08:06:23.836Z,93368.75
2022-12-13T08:07:20.494Z,93368.91
2022-12-13T08:08:20.042Z,93347.66
2022-12-13T08:09:16.641Z,93356.50
2022-12-13T08:10:13.273Z,93364.53
2022-12-13T08:11:15.412Z,93371.97
2022-12-13T08:12:12.026Z,93368.50
2022-12-13T08:13:08.724Z,93365.28
2022-12-13T08:14:06.344Z,93348.78
2022-12-13T08:15:03.191Z,93368.97
2022-12-13T08:16:26.338Z,93365.34
2022-12-13T08:17:23.345Z,93361.38
2022-12-13T08:18:19.957Z,93362.22
2022-12-13T08:19:16.588Z,93360.19
2022-12-13T08:20:13.548Z,93349.16
2022-12-13T08:21:52.687Z,93354.94
2022-12-13T08:22:36.344Z,93349.47
2022-12-13T08:23:34.267Z,93350.25
2022-12-13T08:24:31.321Z,93345.16
2022-12-13T08:25:28.077Z,93354.84
2022-12-13T08:26:24.972Z,93360.78
2022-12-13T08:27:21.709Z,93367.00
2022-12-13T08:28:18.540Z,93373.25
2022-12-13T08:29:23.052Z,93366.81
2022-12-13T08:30:32.151Z,93369.84
2022-12-13T08:31:33.787Z,93378.75
2022-12-13T08:32:30.775Z,93377.78
2022-12-13T08:33:27.542Z,93378.72
2022-12-13T08:34:24.143Z,93381.34
2022-12-13T08:35:20.790Z,93373.38
2022-12-13T08:36:18.495Z,93382.00
2022-12-13T08:37:16.700Z,93378.47
2022-12-13T08:38:13.848Z,93384.03
2022-12-13T08:39:19.569Z,93384.06
2022-12-13T08:40:16.406Z,93381.13
2022-12-13T08:41:13.940Z,93390.50
2022-12-13T08:42:18.798Z,93382.88
2022-12-13T08:43:15.798Z,93383.53
2022-12-13T08:44:12.393Z,93383.31
2022-12-13T08:45:09.580Z,93340.94
2022-12-13T08:46:06.761Z,93379.09
2022-12-13T08:47:03.420Z,93373.09
2022-12-13T08:48:01.187Z,93368.97
2022-12-13T08:48:57.887Z,93368.47
2022-12-13T08:50:02.354Z,93367.22
2022-12-13T08:51:24.590Z,93358.59
2022-12-13T08:52:23.710Z,93366.47
2022-12-13T08:53:21.055Z,93362.00
2022-12-13T08:54:31.711Z,93366.56
2022-12-13T08:55:31.774Z,93364.19
2022-12-13T08:56:30.133Z,93367.06
2022-12-13T08:57:26.765Z,93355.22
2022-12-13T08:58:23.451Z,93358.84
2022-12-13T08:59:20.148Z,93353.94
2022-12-13T09:00:19.386Z,93354.19
2022-12-13T09:01:16.217Z,93355.25
2022-12-13T09:02:17.276Z,93350.22
2022-12-13T09:03:13.920Z,93355.47
2022-12-13T09:04:10.586Z,93356.38
2022-12-13T09:05:09.273Z,93357.22
2022-12-13T09:06:13.814Z,93357.72
2022-12-13T09:07:10.387Z,93360.16
2022-12-13T09:08:23.708Z,93346.19
2022-12-13T09:09:21.871Z,93358.03
2022-12-13T09:10:27.512Z,93363.97
2022-12-13T09:11:35.003Z,93351.41
2022-12-13T09:12:35.023Z,93361.53
2022-12-13T09:13:43.563Z,93350.03
2022-12-13T09:14:45.393Z,93348.09
2022-12-13T09:15:46.307Z,93346.44
2022-12-13T09:16:50.447Z,93338.06
2022-12-13T09:17:52.492Z,93330.75
2022-12-13T09:18:54.720Z,93299.69
2022-12-13T09:19:57.962Z,93346.13
2022-12-13T09:20:55.440Z,93345.50
2022-12-13T09:22:07.871Z,93312.09
2022-12-13T09:23:14.314Z,93345.34
2022-12-13T09:24:24.170Z,93341.41
2022-12-13T09:25:24.018Z,93296.97
2022-12-13T09:26:25.602Z,93333.28
2022-12-13T09:27:28.232Z,93333.19
2022-12-13T09:28:25.522Z,93335.44
2022-12-13T09:29:22.182Z,93328.84
2022-12-13T09:30:19.283Z,93326.56
2022-12-13T09:31:19.426Z,93323.44
2022-12-13T09:32:16.259Z,93327.84
2022-12-13T09:33:17.642Z,93294.63
2022-12-13T09:34:26.859Z,93323.50
2022-12-13T09:35:23.607Z,93321.50
2022-12-13T09:36:21.504Z,93331.31
2022-12-13T09:37:22.748Z,93318.69
2022-12-13T09:38:20.409Z,93328.97
2022-12-13T09:39:17.199Z,93321.38
2022-12-13T09:40:26.061Z,93254.25
2022-12-13T09:41:42.522Z,93313.44
2022-12-13T09:42:44.995Z,93315.22
2022-12-13T09:43:44.084Z,93322.94
2022-12-13T09:45:02.185Z,93319.91
2022-12-13T09:46:13.304Z,93305.88
2022-12-13T09:47:26.191Z,93272.66
2022-12-13T09:48:23.545Z,93315.03
2022-12-13T09:49:38.469Z,93316.91
2022-12-13T09:50:38.766Z,93314.59
2022-12-13T09:51:41.461Z,93321.72
2022-12-13T09:52:44.479Z,93301.63
2022-12-13T09:53:51.532Z,93318.53
2022-12-13T09:54:50.136Z,93324.47
2022-12-13T09:55:50.880Z,93315.50
2022-12-13T09:56:51.401Z,93314.59
2022-12-13T09:57:48.760Z,93290.41
2022-12-13T09:58:49.279Z,93327.78
2022-12-13T09:59:47.596Z,93301.63
2022-12-13T10:00:47.485Z,93319.50
2022-12-13T10:01:45.487Z,93317.50
2022-12-13T10:02:48.380Z,93323.72
2022-12-13T10:03:49.206Z,93317.25
2022-12-13T10:04:45.899Z,93309.75
2022-12-13T10:05:46.053Z,93317.31
2022-12-13T10:06:42.788Z,93326.19
2022-12-13T10:07:40.257Z,93325.13
2022-12-13T10:08:50.380Z,93326.47
2022-12-13T10:10:01.603Z,93291.25
2022-12-13T10:10:58.377Z,93285.88
2022-12-13T10:11:55.846Z,93315.91
2022-12-13T10:13:08.716Z,93271.16
2022-12-13T10:14:30.020Z,93309.13
2022-12-13T10:15:28.580Z,93301.56
2022-12-13T10:16:25.179Z,93298.50
2022-12-13T10:17:25.745Z,93286.56
2022-12-13T10:18:33.824Z,93299.00
2022-12-13T10:19:40.541Z,93294.94
2022-12-13T10:20:37.720Z,93275.44
2022-12-13T10:21:42.932Z,93298.50
2022-12-13T10:22:39.533Z,93293.16
2022-12-13T10:23:59.811Z,93283.00
2022-12-13T10:25:03.868Z,93286.13
2022-12-13T10:26:03.297Z,93288.69
2022-12-13T10:27:32.146Z,93279.78
2022-12-13T10:28:33.466Z,93265.31
2022-12-13T10:29:30.081Z,93274.53
2022-12-13T10:30:29.161Z,93272.94
2022-12-13T10:31:26.204Z,93286.78
2022-12-13T10:32:23.093Z,93280.88
2022-12-13T10:33:28.987Z,93278.56
2022-12-13T10:34:29.915Z,93283.09
2022-12-13T10:35:27.929Z,93280.50
2022-12-13T10:36:43.789Z,93288.00
2022-12-13T10:37:40.452Z,93283.41
2022-12-13T10:38:45.564Z,93283.81
2022-12-13T10:39:43.634Z,93283.91
2022-12-13T10:40:46.744Z,93280.84
2022-12-13T10:41:44.470Z,93282.63
2022-12-13T10:42:41.095Z,93277.28
2022-12-13T10:43:38.076Z,93283.06
2022-12-13T10:44:35.488Z,93273.00
2022-12-13T10:45:32.161Z,93271.50
2022-12-13T10:46:31.268Z,93269.56
2022-12-13T10:47:36.461Z,93269.50
2022-12-13T10:48:39.910Z,93269.72
2022-12-13T10:49:39.420Z,93261.56
2022-12-13T10:50:37.099Z,93259.69
2022-12-13T10:51:39.964Z,93264.59
2022-12-13T10:52:43.162Z,93256.34
2022-12-13T10:53:47.390Z,93259.22
2022-12-13T10:54:48.523Z,93258.44
2022-12-13T10:55:45.545Z,93263.88
2022-12-13T10:56:51.018Z,93229.81
2022-12-13T10:57:56.935Z,93259.94
2022-12-13T10:59:16.987Z,93253.53
2022-12-13T11:00:33.682Z,93174.44
2022-12-13T11:01:30.521Z,93226.50
2022-12-13T11:02:38.360Z,93244.41
2022-12-13T11:03:35.019Z,93250.75
2022-12-13T11:04:35.304Z,93243.31
2022-12-13T11:05:35.619Z,93239.31
2022-12-13T11:06:46.746Z,93247.50
2022-12-13T11:07:43.323Z,93253.72
2022-12-13T11:08:40.146Z,93251.94
2022-12-13T11:09:38.936Z,93250.41
2022-12-13T11:10:36.517Z,93252.28
2022-12-13T11:11:34.948Z,93213.31
2022-12-13T11:12:31.729Z,93250.63
2022-12-13T11:13:33.516Z,93243.53
2022-12-13T11:14:43.221Z,93240.34
2022-12-13T11:15:40.353Z,93236.13
2022-12-13T11:16:41.485Z,93219.97
2022-12-13T11:17:48.116Z,93240.47
2022-12-13T11:18:53.018Z,93247.38
2022-12-13T11:19:54.012Z,93242.28
2022-12-13T11:21:00.456Z,93241.06
2022-12-13T11:21:57.319Z,93236.06
2022-12-13T11:23:19.675Z,93236.22
2022-12-13T11:24:38.420Z,93233.72
2022-12-13T11:25:43.709Z,93242.56
2022-12-13T11:26:42.932Z,93218.94
2022-12-13T11:27:46.174Z,93245.78
2022-12-13T11:29:09.224Z,93251.63
2022-12-13T11:30:27.359Z,93241.31
2022-12-13T11:31:48.851Z,93236.44
2022-12-13T11:32:59.268Z,93242.47
2022-12-13T11:34:09.174Z,93244.78
2022-12-13T11:35:16.358Z,93243.34
2022-12-13T11:36:48.578Z,93233.56
2022-12-13T11:37:49.330Z,93239.09
2022-12-13T11:38:58.188Z,93236.94
2022-12-13T11:40:01.679Z,93242.78
2022-12-13T11:41:38.633Z,93228.44
2022-12-13T11:42:54.161Z,93241.41
2022-12-13T11:44:14.055Z,93239.97
2022-12-13T11:45:11.716Z,93248.97
2022-12-13T11:46:35.136Z,93245.75
2022-12-13T11:48:00.645Z,93242.19
2022-12-13T11:49:03.079Z,93237.66
2022-12-13T11:50:00.639Z,93241.81
2022-12-13T11:51:00.103Z,93222.72
2022-12-13T11:52:21.897Z,93231.22
2022-12-13T11:53:50.675Z,93243.06
2022-12-13T11:54:57.687Z,93237.25
2022-12-13T11:56:20.267Z,93229.22
2022-12-13T11:57:31.658Z,93234.50
2022-12-13T11:59:02.913Z,93219.97